Time;durP1;ratioP1;P1;durP2;ratioP2;P2;SDS_P1;SDS_P2;PMS_P1;PMS_P2;Temp;Humidity;BMP_temperature;BMP_pressure;BME280_temperature;BME280_humidity;BME280_pressure;Samples;Min_cycle;Max_cycle;Signal;HPM_P1;HPM_P2
2023/09/11 00:01:47;;;;;;;;;;;;;;;16.97;44.51;95618.22;4994853;28;20000;-72
2023/09/11 00:04:13;;;;;;;;;;;;;;;16.98;44.37;95617.16;4993575;28;20292;-71
2023/09/11 00:06:38;;;;;;;;;;;;;;;16.93;44.36;95608.91;5002147;28;20237;-71
2023/09/11 00:09:03;;;;;;;;;;;;;;;16.88;44.45;95608.75;4991938;28;20227;-72
2023/09/11 00:11:29;;;;;;;;;;;;;;;16.82;44.62;95605.06;4990684;28;19965;-70
2023/09/11 00:13:54;;;;;;;;;;;;;;;16.80;44.70;95600.97;4993966;28;20234;-72
2023/09/11 00:16:19;;;;;;;;;;;;;;;16.76;44.82;95601.41;4994897;28;20524;-70
2023/09/11 00:18:45;;;;;;;;;;;;;;;16.74;44.98;95602.66;4993802;28;19973;-72
2023/09/11 00:21:10;;;;;;;;;;;;;;;16.66;45.02;95597.56;4997415;28;19965;-71
2023/09/11 00:23:35;;;;;;;;;;;;;;;16.62;44.85;95599.84;4994719;28;20420;-71
2023/09/11 00:26:01;;;;;;;;;;;;;;;16.57;44.90;95600.50;4995372;28;19942;-72
2023/09/11 00:28:26;;;;;;;;;;;;;;;16.53;45.06;95593.91;4993876;28;20693;-70
2023/09/11 00:30:51;;;;;;;;;;;;;;;16.51;45.15;95593.28;4994532;28;20241;-72
2023/09/11 00:33:16;;;;;;;;;;;;;;;16.48;44.91;95599.09;4994162;28;19977;-71
2023/09/11 00:35:45;;;;;;;;;;;;;;;16.43;45.48;95593.56;4990494;28;20751;-71
2023/09/11 00:38:11;;;;;;;;;;;;;;;16.42;45.88;95598.09;4989320;28;19984;-72
2023/09/11 00:40:36;;;;;;;;;;;;;;;16.39;45.34;95593.19;4990769;28;20151;-71
2023/09/11 00:43:01;;;;;;;;;;;;;;;16.36;45.66;95589.03;4994614;28;19958;-70
2023/09/11 00:45:26;;;;;;;;;;;;;;;16.33;45.93;95583.25;4991409;28;20496;-72
2023/09/11 00:47:52;;;;;;;;;;;;;;;16.32;45.76;95585.09;4994722;28;20013;-71
2023/09/11 00:50:17;;;;;;;;;;;;;;;16.34;45.70;95579.53;4995852;28;19935;-70
2023/09/11 00:52:43;;;;;;;;;;;;;;;16.38;45.68;95583.44;4997812;28;19951;-71
2023/09/11 00:55:08;;;;;;;;;;;;;;;16.36;45.44;95583.66;4992862;28;20247;-72
2023/09/11 00:57:33;;;;;;;;;;;;;;;16.32;45.87;95574.34;4992720;28;20699;-72
2023/09/11 00:59:58;;;;;;;;;;;;;;;16.35;45.67;95581.22;4991636;28;20074;-72
2023/09/11 01:02:24;;;;;;;;;;;;;;;16.29;46.19;95576.66;4994397;28;20306;-71
2023/09/11 01:04:49;;;;;;;;;;;;;;;16.26;46.41;95570.69;4993522;28;19971;-72
2023/09/11 01:07:14;;;;;;;;;;;;;;;16.22;46.30;95576.72;4993765;28;20093;-73
2023/09/11 01:09:40;;;;;;;;;;;;;;;16.22;46.18;95572.16;4989775;28;19944;-72
2023/09/11 01:12:05;;;;;;;;;;;;;;;16.18;45.96;95570.13;4991632;28;19973;-73
2023/09/11 01:14:31;;;;;;;;;;;;;;;16.10;46.06;95563.97;4991362;28;19965;-72
2023/09/11 01:16:58;;;;;;;;;;;;;;;16.18;45.99;95562.06;4993692;28;20259;-73
2023/09/11 01:19:42;;;;;;;;;;;;;;;16.12;45.90;95564.56;4989123;28;20667;-71
2023/09/11 01:22:24;;;;;;;;;;;;;;;16.06;46.08;95560.06;4993853;28;20062;-72
2023/09/11 01:25:13;;;;;;;;;;;;;;;16.03;46.28;95563.16;4983840;28;20325;-73
2023/09/11 01:27:53;;;;;;;;;;;;;;;16.01;46.35;95570.59;4980974;28;20000;-73
2023/09/11 01:30:19;;;;;;;;;;;;;;;16.00;46.37;95561.75;4992367;28;20186;-72
2023/09/11 01:32:44;;;;;;;;;;;;;;;15.99;46.22;95564.63;4992397;28;20646;-72
2023/09/11 01:35:09;;;;;;;;;;;;;;;15.93;46.58;95558.25;4989528;28;19996;-72
2023/09/11 01:37:35;;;;;;;;;;;;;;;15.94;46.64;95562.59;4989379;28;20268;-72
2023/09/11 01:40:00;;;;;;;;;;;;;;;15.91;46.80;95565.69;4991840;28;19996;-75
2023/09/11 01:42:26;;;;;;;;;;;;;;;15.90;46.66;95557.88;4993700;28;19966;-72
2023/09/11 01:44:51;;;;;;;;;;;;;;;15.91;46.79;95554.16;4990777;28;20179;-70
2023/09/11 01:47:17;;;;;;;;;;;;;;;15.87;46.61;95556.41;4991664;28;20130;-71
2023/09/11 01:49:42;;;;;;;;;;;;;;;15.84;46.79;95554.19;4987596;28;19949;-74
2023/09/11 01:52:08;;;;;;;;;;;;;;;15.82;46.65;95557.09;4993402;28;19963;-71
2023/09/11 01:54:33;;;;;;;;;;;;;;;15.81;46.67;95551.91;4975019;28;20041;-73
2023/09/11 01:56:58;;;;;;;;;;;;;;;15.81;46.73;95554.59;4991631;28;19981;-73
2023/09/11 01:59:23;;;;;;;;;;;;;;;15.78;46.81;95555.03;4989806;28;19961;-71
2023/09/11 02:01:49;;;;;;;;;;;;;;;15.74;47.11;95558.13;4993491;28;19958;-70
2023/09/11 02:04:14;;;;;;;;;;;;;;;15.75;47.24;95551.72;4991353;28;20226;-74
2023/09/11 02:06:39;;;;;;;;;;;;;;;15.74;47.21;95554.63;4993251;28;19963;-75
2023/09/11 02:09:04;;;;;;;;;;;;;;;15.74;46.90;95554.63;4992513;28;20242;-73
2023/09/11 02:11:29;;;;;;;;;;;;;;;15.74;47.23;95557.31;4985499;28;19961;-72
2023/09/11 02:13:55;;;;;;;;;;;;;;;15.70;46.84;95554.22;4992449;28;20279;-73
2023/09/11 02:16:20;;;;;;;;;;;;;;;15.69;46.85;95546.38;4991158;28;19965;-71
2023/09/11 02:18:45;;;;;;;;;;;;;;;15.67;46.83;95551.97;4991675;28;19971;-71
2023/09/11 02:21:11;;;;;;;;;;;;;;;15.69;47.00;95551.75;4994182;28;20268;-71
2023/09/11 02:23:36;;;;;;;;;;;;;;;15.67;47.14;95546.59;4992742;28;19983;-70
2023/09/11 02:26:01;;;;;;;;;;;;;;;15.67;46.93;95551.97;4992790;28;20388;-71
2023/09/11 02:28:27;;;;;;;;;;;;;;;15.66;47.05;95553.00;4991696;28;19962;-70
2023/09/11 02:30:52;;;;;;;;;;;;;;;15.63;47.27;95542.69;4988064;28;20034;-73
2023/09/11 02:33:17;;;;;;;;;;;;;;;15.64;47.07;95548.88;4992962;28;19985;-71
2023/09/11 02:35:42;;;;;;;;;;;;;;;15.63;47.52;95545.38;4989793;28;20049;-71
2023/09/11 02:38:08;;;;;;;;;;;;;;;15.65;47.39;95545.16;4985985;28;19943;-71
2023/09/11 02:40:34;;;;;;;;;;;;;;;15.62;47.51;95546.41;4990968;28;20062;-70
2023/09/11 02:43:00;;;;;;;;;;;;;;;15.62;47.30;95549.09;4992415;28;19936;-71
2023/09/11 02:45:25;;;;;;;;;;;;;;;15.63;47.54;95545.38;4989242;28;19943;-71
2023/09/11 02:47:50;;;;;;;;;;;;;;;15.63;47.03;95542.69;4992304;28;20068;-71
2023/09/11 02:50:15;;;;;;;;;;;;;;;15.57;47.07;95541.69;4995210;28;20200;-71
2023/09/11 02:52:41;;;;;;;;;;;;;;;15.57;47.15;95544.34;4996602;28;20253;-72
2023/09/11 02:55:06;;;;;;;;;;;;;;;15.59;47.13;95533.41;4991361;28;20271;-71
2023/09/11 02:57:32;;;;;;;;;;;;;;;15.57;47.36;95543.56;4992335;28;20028;-71
2023/09/11 02:59:57;;;;;;;;;;;;;;;15.58;47.32;95539.81;4991942;28;20057;-73
2023/09/11 03:02:22;;;;;;;;;;;;;;;15.59;47.35;95530.72;4991656;28;19982;-71
2023/09/11 03:04:50;;;;;;;;;;;;;;;15.52;47.51;95540.63;4991066;28;20076;-70
2023/09/11 03:07:17;;;;;;;;;;;;;;;15.46;47.83;95528.88;4992419;28;20344;-71
2023/09/11 03:09:43;;;;;;;;;;;;;;;15.49;47.91;95529.31;4990000;28;20045;-72
2023/09/11 03:12:09;;;;;;;;;;;;;;;15.54;47.85;95528.66;4988846;28;19971;-72
2023/09/11 03:14:34;;;;;;;;;;;;;;;15.59;47.84;95528.06;4990354;28;20426;-70
2023/09/11 03:16:59;;;;;;;;;;;;;;;15.60;47.48;95530.53;4988683;28;20399;-72
2023/09/11 03:19:25;;;;;;;;;;;;;;;15.60;47.78;95527.00;4992171;28;20134;-72
2023/09/11 03:21:50;;;;;;;;;;;;;;;15.59;47.48;95530.72;4991802;28;19944;-71
2023/09/11 03:24:15;;;;;;;;;;;;;;;15.59;47.24;95520.84;4993567;28;19960;-74
2023/09/11 03:26:40;;;;;;;;;;;;;;;15.54;47.26;95528.66;4993245;28;20609;-71
2023/09/11 03:29:06;;;;;;;;;;;;;;;15.55;47.11;95527.63;4996513;28;19981;-71
2023/09/11 03:31:31;;;;;;;;;;;;;;;15.49;47.18;95520.41;4993902;28;20394;-73
2023/09/11 03:33:56;;;;;;;;;;;;;;;15.48;47.50;95524.97;4996705;28;19989;-74
2023/09/11 03:36:21;;;;;;;;;;;;;;;15.48;47.42;95519.63;4995399;28;20458;-71
2023/09/11 03:38:47;;;;;;;;;;;;;;;15.43;46.91;95516.72;4990509;28;19971;-74
2023/09/11 03:41:12;;;;;;;;;;;;;;;15.46;47.14;95516.31;4994335;28;20332;-73
2023/09/11 03:43:37;;;;;;;;;;;;;;;15.46;46.92;95513.63;4994831;28;19999;-74
2023/09/11 03:46:02;;;;;;;;;;;;;;;15.49;47.13;95515.06;4994056;28;20036;-71
2023/09/11 03:48:28;;;;;;;;;;;;;;;15.47;46.99;95509.09;4995529;28;19974;-73
2023/09/11 03:50:53;;;;;;;;;;;;;;;15.42;47.17;95509.72;5001302;28;19946;-72
2023/09/11 03:53:18;;;;;;;;;;;;;;;15.38;47.20;95511.19;5000340;28;20301;-74
2023/09/11 03:55:43;;;;;;;;;;;;;;;15.36;47.47;95510.56;4989748;28;19997;-70
2023/09/11 03:58:10;;;;;;;;;;;;;;;15.37;47.50;95504.19;4995514;28;20014;-73
2023/09/11 04:00:35;;;;;;;;;;;;;;;15.40;47.25;95505.59;4990587;28;20033;-74
2023/09/11 04:03:00;;;;;;;;;;;;;;;15.33;47.38;95505.63;4995689;28;20002;-71
2023/09/11 04:05:25;;;;;;;;;;;;;;;15.32;47.59;95499.44;4992309;28;19950;-72
2023/09/11 04:07:51;;;;;;;;;;;;;;;15.33;47.87;95500.28;4995307;28;20068;-72
2023/09/11 04:10:16;;;;;;;;;;;;;;;15.34;47.96;95504.59;4989973;28;20038;-75
2023/09/11 04:12:41;;;;;;;;;;;;;;;15.34;48.11;95496.56;4992781;28;20335;-72
2023/09/11 04:15:07;;;;;;;;;;;;;;;15.32;48.03;95504.81;4992423;28;19994;-71
2023/09/11 04:17:32;;;;;;;;;;;;;;;15.34;47.82;95501.91;4995288;28;19948;-74
2023/09/11 04:19:59;;;;;;;;;;;;;;;15.33;47.58;95498.41;4993528;28;20518;-71
2023/09/11 04:22:24;;;;;;;;;;;;;;;15.33;47.48;95498.41;4996554;28;19945;-72
2023/09/11 04:24:49;;;;;;;;;;;;;;;15.33;46.90;95501.06;4994357;28;19967;-73
2023/09/11 04:27:14;;;;;;;;;;;;;;;15.30;47.09;95501.50;4992410;28;20096;-71
2023/09/11 04:29:40;;;;;;;;;;;;;;;15.31;47.30;95500.47;4994831;28;20038;-72
2023/09/11 04:32:05;;;;;;;;;;;;;;;15.27;47.16;95515.34;4993142;28;19969;-72
2023/09/11 04:34:30;;;;;;;;;;;;;;;15.21;47.91;95505.44;4994660;28;20243;-71
2023/09/11 04:36:55;;;;;;;;;;;;;;;15.19;48.31;95511.03;4992833;28;20095;-70
2023/09/11 04:39:21;;;;;;;;;;;;;;;15.18;48.40;95505.88;4994214;28;20502;-73
2023/09/11 04:41:47;;;;;;;;;;;;;;;15.19;48.64;95510.19;4989282;28;19945;-71
2023/09/11 04:44:12;;;;;;;;;;;;;;;15.20;48.63;95507.28;4994503;28;19963;-73
2023/09/11 04:46:37;;;;;;;;;;;;;;;15.22;48.86;95507.09;4990897;28;19970;-71
2023/09/11 04:49:02;;;;;;;;;;;;;;;15.17;48.16;95501.53;4989831;28;20063;-71
2023/09/11 04:51:28;;;;;;;;;;;;;;;15.15;48.43;95503.59;4988904;28;19965;-73
2023/09/11 04:53:53;;;;;;;;;;;;;;;15.16;48.94;95503.38;4997640;28;20338;-73
2023/09/11 04:56:18;;;;;;;;;;;;;;;15.21;48.70;95503.59;4989579;28;19999;-71
2023/09/11 04:58:43;;;;;;;;;;;;;;;15.29;48.61;95499.84;4994484;28;19943;-73
2023/09/11 05:01:09;;;;;;;;;;;;;;;15.24;48.51;95505.84;4991873;28;19961;-71
2023/09/11 05:03:34;;;;;;;;;;;;;;;15.27;48.74;95503.78;4988494;28;20606;-70
2023/09/11 05:05:59;;;;;;;;;;;;;;;15.28;48.08;95502.75;4989028;28;19952;-71
2023/09/11 05:08:25;;;;;;;;;;;;;;;15.31;48.52;95507.69;4999470;28;20312;-72
2023/09/11 05:10:50;;;;;;;;;;;;;;;15.31;48.38;95518.41;4996087;28;19936;-72
2023/09/11 05:13:15;;;;;;;;;;;;;;;15.31;48.45;95505.84;4993919;28;20371;-72
2023/09/11 05:15:40;;;;;;;;;;;;;;;15.33;47.94;95511.00;4987260;28;20033;-71
2023/09/11 05:18:05;;;;;;;;;;;;;;;15.36;48.25;95506.03;4993665;28;19970;-72
2023/09/11 05:20:31;;;;;;;;;;;;;;;15.36;48.44;95506.03;4988916;28;20234;-72
2023/09/11 05:22:56;;;;;;;;;;;;;;;15.41;48.00;95507.25;4995969;28;20010;-70
2023/09/11 05:25:21;;;;;;;;;;;;;;;15.45;48.04;95505.78;4992164;28;20289;-72
2023/09/11 05:27:47;;;;;;;;;;;;;;;15.49;48.08;95510.53;4993087;28;19967;-70
2023/09/11 05:30:15;;;;;;;;;;;;;;;15.52;47.82;95508.44;4990350;28;19992;-71
2023/09/11 05:32:40;;;;;;;;;;;;;;;15.57;47.66;95509.47;4993843;28;20041;-71
2023/09/11 05:35:06;;;;;;;;;;;;;;;15.62;47.43;95511.53;4990742;28;20286;-71
2023/09/11 05:37:31;;;;;;;;;;;;;;;15.68;47.33;95510.69;4992217;28;19929;-73
2023/09/11 05:39:56;;;;;;;;;;;;;;;15.75;47.29;95516.81;4991739;28;20047;-72
2023/09/11 05:42:21;;;;;;;;;;;;;;;15.85;47.26;95512.88;4992771;28;19987;-71
2023/09/11 05:44:48;;;;;;;;;;;;;;;15.92;47.00;95505.63;4992461;28;19969;-71
2023/09/11 05:47:13;;;;;;;;;;;;;;;16.03;46.96;95508.63;4991544;28;19969;-71
2023/09/11 05:49:38;;;;;;;;;;;;;;;16.17;46.67;95506.69;4993444;28;20400;-70
2023/09/11 05:52:04;;;;;;;;;;;;;;;16.29;46.23;95517.56;4996240;28;20069;-71
2023/09/11 05:54:30;;;;;;;;;;;;;;;16.41;46.18;95515.88;4995762;28;20454;-71
2023/09/11 05:56:55;;;;;;;;;;;;;;;16.54;45.95;95522.16;4986108;28;20037;-71
2023/09/11 05:59:20;;;;;;;;;;;;;;;16.67;45.64;95518.56;4995858;28;20004;-70
2023/09/11 06:01:46;;;;;;;;;;;;;;;16.79;45.40;95518.69;4990204;28;19932;-71
2023/09/11 06:04:11;;;;;;;;;;;;;;;16.95;45.15;95519.97;4992462;28;20311;-72
2023/09/11 06:06:37;;;;;;;;;;;;;;;17.10;44.84;95516.94;4988434;28;20024;-71
2023/09/11 06:09:03;;;;;;;;;;;;;;;17.23;44.64;95516.81;4992595;28;20360;-71
2023/09/11 06:11:29;;;;;;;;;;;;;;;17.36;44.84;95517.72;4986057;28;20021;-71
2023/09/11 06:13:54;;;;;;;;;;;;;;;17.49;44.39;95509.50;4991712;28;20478;-70
2023/09/11 06:16:19;;;;;;;;;;;;;;;17.62;44.50;95518.47;4990779;28;20273;-72
2023/09/11 06:18:45;;;;;;;;;;;;;;;17.75;44.36;95522.88;4991422;28;20042;-72
2023/09/11 06:21:10;;;;;;;;;;;;;;;17.87;44.32;95518.41;4992466;28;19921;-71
2023/09/11 06:23:36;;;;;;;;;;;;;;;17.99;44.49;95523.00;4992058;28;20160;-72
2023/09/11 06:26:01;;;;;;;;;;;;;;;18.15;43.44;95521.56;4990323;28;19925;-72
2023/09/11 06:28:26;;;;;;;;;;;;;;;18.33;43.77;95527.94;4991414;28;20009;-72
2023/09/11 06:30:51;;;;;;;;;;;;;;;18.47;43.42;95526.69;4991794;28;19960;-72
2023/09/11 06:33:17;;;;;;;;;;;;;;;18.65;43.57;95533.88;4992645;28;19949;-72
2023/09/11 06:35:42;;;;;;;;;;;;;;;18.85;43.42;95529.22;4986024;28;20466;-70
2023/09/11 06:38:07;;;;;;;;;;;;;;;18.99;43.52;95530.63;4990326;28;19978;-72
2023/09/11 06:40:32;;;;;;;;;;;;;;;19.18;42.23;95534.03;4988122;28;19963;-71
2023/09/11 06:42:58;;;;;;;;;;;;;;;19.39;41.97;95528.28;4989837;28;19948;-72
2023/09/11 06:45:23;;;;;;;;;;;;;;;19.59;41.60;95534.13;4989510;28;20426;-72
2023/09/11 06:47:48;;;;;;;;;;;;;;;19.81;41.18;95525.38;4992385;28;20375;-71
2023/09/11 06:50:14;;;;;;;;;;;;;;;20.02;40.65;95528.50;4993917;28;19932;-71
2023/09/11 06:52:40;;;;;;;;;;;;;;;20.22;41.95;95527.25;4992370;28;20127;-72
2023/09/11 06:55:09;;;;;;;;;;;;;;;20.40;41.56;95530.81;4988817;28;19940;-72
2023/09/11 06:57:34;;;;;;;;;;;;;;;20.59;39.97;95529.50;4989335;28;20329;-72
2023/09/11 06:59:59;;;;;;;;;;;;;;;20.79;40.56;95525.53;4993025;28;20602;-70
2023/09/11 07:02:25;;;;;;;;;;;;;;;20.95;40.15;95528.47;4993861;28;19987;-70
2023/09/11 07:04:50;;;;;;;;;;;;;;;21.05;38.17;95531.34;4995300;28;19960;-72
2023/09/11 07:07:15;;;;;;;;;;;;;;;21.20;39.06;95528.03;4990029;28;19937;-72
2023/09/11 07:09:40;;;;;;;;;;;;;;;21.37;37.95;95527.22;4992305;28;20405;-71
2023/09/11 07:12:06;;;;;;;;;;;;;;;21.57;38.98;95528.53;4991424;28;19948;-72
2023/09/11 07:14:31;;;;;;;;;;;;;;;21.81;38.75;95525.59;4993935;28;20012;-72
2023/09/11 07:17:00;;;;;;;;;;;;;;;21.97;36.36;95519.31;4994276;28;20060;-75
2023/09/11 07:19:25;;;;;;;;;;;;;;;22.22;37.59;95526.06;4993193;28;19932;-70
2023/09/11 07:21:51;;;;;;;;;;;;;;;22.41;38.10;95528.44;4997472;28;19921;-72
2023/09/11 07:24:16;;;;;;;;;;;;;;;22.69;35.72;95529.25;4995265;28;19925;-72
2023/09/11 07:26:41;;;;;;;;;;;;;;;22.82;35.43;95524.44;4990671;28;19980;-72
2023/09/11 07:29:07;;;;;;;;;;;;;;;23.06;35.75;95533.03;4994996;28;19925;-71
2023/09/11 07:31:32;;;;;;;;;;;;;;;23.21;36.36;95528.84;4992225;28;19926;-72
2023/09/11 07:33:57;;;;;;;;;;;;;;;23.17;33.10;95529.34;4996202;28;20394;-71
2023/09/11 07:36:23;;;;;;;;;;;;;;;23.20;33.32;95532.59;4990787;28;19926;-73
2023/09/11 07:38:48;;;;;;;;;;;;;;;23.36;33.45;95520.78;4990009;28;20193;-71
2023/09/11 07:41:13;;;;;;;;;;;;;;;23.40;33.42;95519.16;4993775;28;19960;-76
2023/09/11 07:43:39;;;;;;;;;;;;;;;23.42;33.35;95521.63;4995110;28;19921;-72
2023/09/11 07:46:04;;;;;;;;;;;;;;;23.66;33.64;95518.47;4994213;28;20533;-72
2023/09/11 07:48:29;;;;;;;;;;;;;;;23.97;33.48;95517.78;4995562;28;19960;-73
2023/09/11 07:50:55;;;;;;;;;;;;;;;24.19;32.02;95515.69;4997220;28;20154;-71
2023/09/11 07:53:21;;;;;;;;;;;;;;;24.24;32.13;95514.06;5000751;28;20441;-73
2023/09/11 07:55:46;;;;;;;;;;;;;;;23.85;31.63;95516.13;4994072;28;20246;-73
2023/09/11 07:58:12;;;;;;;;;;;;;;;24.14;30.19;95518.41;4995619;28;19928;-71
2023/09/11 08:00:37;;;;;;;;;;;;;;;23.68;31.18;95519.00;4993508;28;20373;-72
2023/09/11 08:03:03;;;;;;;;;;;;;;;24.09;30.39;95520.28;4991313;28;19929;-70
2023/09/11 08:05:28;;;;;;;;;;;;;;;23.45;31.71;95520.28;4995420;28;19925;-71
2023/09/11 08:07:53;;;;;;;;;;;;;;;23.81;31.10;95512.31;4990162;28;20028;-71
2023/09/11 08:10:18;;;;;;;;;;;;;;;25.17;28.66;95519.56;4992498;28;20023;-73
2023/09/11 08:12:44;;;;;;;;;;;;;;;25.38;29.32;95527.69;4993267;28;20361;-72
2023/09/11 08:15:09;;;;;;;;;;;;;;;25.33;29.70;95524.97;4995124;28;19988;-73
2023/09/11 08:17:34;;;;;;;;;;;;;;;25.30;29.96;95526.34;4993737;28;19922;-72
2023/09/11 08:20:00;;;;;;;;;;;;;;;25.32;29.97;95523.34;4991358;28;20338;-73
2023/09/11 08:22:25;;;;;;;;;;;;;;;24.68;29.89;95527.16;4989767;28;19965;-72
2023/09/11 08:24:50;;;;;;;;;;;;;;;25.04;29.90;95526.38;4991387;28;20227;-72
2023/09/11 08:27:15;;;;;;;;;;;;;;;23.51;32.62;95524.63;4992196;28;19930;-70
2023/09/11 08:29:41;;;;;;;;;;;;;;;24.41;30.67;95522.00;4993535;28;20417;-71
2023/09/11 08:32:06;;;;;;;;;;;;;;;24.02;31.98;95525.94;4993710;28;19999;-73
2023/09/11 08:34:31;;;;;;;;;;;;;;;23.54;33.29;95518.69;4994900;28;20008;-73
2023/09/11 08:36:57;;;;;;;;;;;;;;;23.57;33.14;95518.16;4991091;28;19960;-70
2023/09/11 08:39:23;;;;;;;;;;;;;;;23.12;34.25;95523.84;4992827;28;20345;-74
2023/09/11 08:41:48;;;;;;;;;;;;;;;24.63;32.49;95520.91;4988858;28;20231;-72
2023/09/11 08:44:13;;;;;;;;;;;;;;;24.81;30.87;95522.28;4990914;28;19964;-72
2023/09/11 08:46:40;;;;;;;;;;;;;;;24.51;31.46;95523.91;4992171;28;20389;-73
2023/09/11 08:49:05;;;;;;;;;;;;;;;24.98;31.07;95518.50;4992822;28;19928;-71
2023/09/11 08:51:35;;;;;;;;;;;;;;;25.46;29.97;95527.13;4997490;28;19925;-71
2023/09/11 08:54:01;;;;;;;;;;;;;;;24.25;30.96;95527.38;4991891;28;20069;-72
2023/09/11 08:56:26;;;;;;;;;;;;;;;24.49;31.43;95520.63;4990562;28;20492;-72
2023/09/11 08:58:52;;;;;;;;;;;;;;;26.08;28.82;95525.28;4993956;28;20056;-72
2023/09/11 09:01:17;;;;;;;;;;;;;;;26.37;28.53;95528.09;4991500;28;20677;-74
2023/09/11 09:03:43;;;;;;;;;;;;;;;26.43;28.53;95526.16;4992761;28;20020;-74
2023/09/11 09:06:08;;;;;;;;;;;;;;;26.26;29.24;95522.97;4993745;28;19967;-73
2023/09/11 09:08:33;;;;;;;;;;;;;;;25.29;29.10;95529.34;4993207;28;19931;-70
2023/09/11 09:10:59;;;;;;;;;;;;;;;25.57;29.67;95530.66;4991406;28;20481;-74
2023/09/11 09:13:24;;;;;;;;;;;;;;;25.68;29.73;95530.59;4991489;28;20178;-72
2023/09/11 09:15:49;;;;;;;;;;;;;;;25.83;29.94;95527.03;4992533;28;19933;-71
2023/09/11 09:18:15;;;;;;;;;;;;;;;25.43;30.10;95527.66;4993495;28;20395;-72
2023/09/11 09:20:40;;;;;;;;;;;;;;;25.57;30.43;95527.94;4995438;28;20818;-69
2023/09/11 09:23:06;;;;;;;;;;;;;;;25.02;31.01;95522.31;4986815;28;19991;-69
2023/09/11 09:25:31;;;;;;;;;;;;;;;25.98;29.77;95529.69;4991616;28;20024;-69
2023/09/11 09:27:57;;;;;;;;;;;;;;;26.04;29.19;95532.41;4989496;28;20638;-69
2023/09/11 09:30:30;;;;;;;;;;;;;;;24.94;30.83;95519.03;4989247;28;19933;-69
2023/09/11 09:32:55;;;;;;;;;;;;;;;26.41;28.81;95520.16;4990014;28;19926;-69
2023/09/11 09:35:21;;;;;;;;;;;;;;;27.08;27.81;95518.00;4987067;28;20398;-68
2023/09/11 09:37:50;;;;;;;;;;;;;;;27.29;27.70;95520.59;4988576;28;19921;-69
2023/09/11 09:40:34;;;;;;;;;;;;;;;26.18;28.50;95506.16;4992420;28;20000;-69
2023/09/11 09:43:00;;;;;;;;;;;;;;;26.93;27.46;95522.53;4989511;28;19988;-69
2023/09/11 09:45:35;;;;;;;;;;;;;;;26.65;28.40;95516.78;4991401;28;20131;-69
2023/09/11 09:48:05;;;;;;;;;;;;;;;26.27;28.99;95516.44;4989880;28;20005;-69
2023/09/11 09:50:35;;;;;;;;;;;;;;;27.42;27.09;95519.88;4991088;28;20003;-69
2023/09/11 09:53:00;;;;;;;;;;;;;;;27.05;27.55;95508.47;4990652;28;20646;-69
2023/09/11 09:55:26;;;;;;;;;;;;;;;25.01;30.86;95509.78;4991996;28;20028;-67
2023/09/11 09:57:51;;;;;;;;;;;;;;;26.59;28.35;95515.16;4989886;28;20339;-69
2023/09/11 10:00:16;;;;;;;;;;;;;;;25.48;29.57;95507.78;4993830;28;20208;-76
2023/09/11 10:02:42;;;;;;;;;;;;;;;26.64;27.92;95511.59;4990948;28;19931;-77
2023/09/11 10:05:07;;;;;;;;;;;;;;;27.61;28.37;95505.47;4991446;28;19930;-77
2023/09/11 10:07:37;;;;;;;;;;;;;;;28.37;26.16;95503.97;4988377;28;20028;-75
2023/09/11 10:10:22;;;;;;;;;;;;;;;27.76;27.08;95497.09;4986225;28;19925;-77
2023/09/11 10:12:53;;;;;;;;;;;;;;;27.95;26.83;95496.31;4986601;28;19986;-76
2023/09/11 10:15:19;;;;;;;;;;;;;;;28.33;25.95;95497.44;4990689;28;19921;-76
2023/09/11 10:17:44;;;;;;;;;;;;;;;28.64;25.76;95491.50;4990218;28;20207;-77
2023/09/11 10:20:10;;;;;;;;;;;;;;;28.84;26.26;95492.28;4993116;28;19930;-76
2023/09/11 10:22:35;;;;;;;;;;;;;;;28.62;25.99;95480.84;4992734;28;20574;-76
2023/09/11 10:25:00;;;;;;;;;;;;;;;28.56;25.62;95481.22;4991261;28;19972;-79
2023/09/11 10:27:25;;;;;;;;;;;;;;;28.93;25.34;95485.03;4985693;28;19961;-77
2023/09/11 10:29:53;;;;;;;;;;;;;;;28.97;25.33;95485.22;4992132;28;20004;-72
2023/09/11 10:32:20;;;;;;;;;;;;;;;27.89;26.62;95481.06;4990617;28;19933;-77
2023/09/11 10:34:45;;;;;;;;;;;;;;;28.30;26.64;95474.25;4990750;28;19917;-78
2023/09/11 10:37:10;;;;;;;;;;;;;;;27.73;27.58;95475.81;4989847;28;19937;-70
2023/09/11 10:39:36;;;;;;;;;;;;;;;27.38;27.24;95477.84;4990619;28;20231;-74
2023/09/11 10:42:01;;;;;;;;;;;;;;;27.54;26.80;95473.03;4990061;28;20171;-73
2023/09/11 10:44:27;;;;;;;;;;;;;;;28.36;26.96;95464.03;4988200;28;20547;-73
2023/09/11 10:46:53;;;;;;;;;;;;;;;29.20;26.53;95455.25;4986558;28;20620;-73
2023/09/11 10:49:18;;;;;;;;;;;;;;;28.84;26.65;95451.22;4986839;28;19921;-73
2023/09/11 10:51:47;;;;;;;;;;;;;;;28.90;25.59;95460.97;4989306;28;20431;-73
2023/09/11 10:54:13;;;;;;;;;;;;;;;29.52;24.80;95457.09;4992299;28;19921;-73
2023/09/11 10:56:39;;;;;;;;;;;;;;;28.00;25.52;95452.47;4990194;28;19926;-73
2023/09/11 10:59:04;;;;;;;;;;;;;;;28.91;25.37;95446.16;4991320;28;19930;-72
2023/09/11 11:01:31;;;;;;;;;;;;;;;29.78;24.52;95437.34;4989544;28;20024;-72
2023/09/11 11:03:56;;;;;;;;;;;;;;;30.05;24.16;95443.09;4988455;28;19937;-73
2023/09/11 11:06:22;;;;;;;;;;;;;;;30.55;24.21;95438.66;4983836;28;20596;-73
2023/09/11 11:08:48;;;;;;;;;;;;;;;30.84;23.11;95432.72;4991539;28;20377;-73
2023/09/11 11:11:21;;;;;;;;;;;;;;;28.48;24.90;95445.22;4989103;28;20107;-70
2023/09/11 11:14:05;;;;;;;;;;;;;;;29.75;23.49;95434.44;4989943;28;20180;-70
2023/09/11 11:16:30;;;;;;;;;;;;;;;30.32;23.87;95444.94;4989581;28;19991;-70
2023/09/11 11:18:56;;;;;;;;;;;;;;;29.84;23.52;95440.00;4990409;28;19922;-70
2023/09/11 11:21:21;;;;;;;;;;;;;;;30.29;22.64;95445.59;4994676;28;20012;-70
2023/09/11 11:23:53;;;;;;;;;;;;;;;30.32;22.67;95446.91;4990126;28;19961;-70
2023/09/11 11:26:18;;;;;;;;;;;;;;;29.00;23.36;95447.09;4989819;28;19918;-70
2023/09/11 11:28:45;;;;;;;;;;;;;;;29.64;23.05;95442.03;4988079;28;19933;-70
2023/09/11 11:31:13;;;;;;;;;;;;;;;29.72;24.38;95438.59;4989322;28;19936;-70
2023/09/11 11:33:38;;;;;;;;;;;;;;;29.91;23.05;95440.41;4990060;28;19921;-70
2023/09/11 11:36:07;;;;;;;;;;;;;;;29.89;23.56;95443.44;4990974;28;20173;-71
2023/09/11 11:38:33;;;;;;;;;;;;;;;29.40;23.76;95443.09;4986479;28;19924;-71
2023/09/11 11:40:58;;;;;;;;;;;;;;;29.86;23.51;95456.94;4991847;28;20333;-71
2023/09/11 11:43:23;;;;;;;;;;;;;;;30.39;22.96;95443.72;4987998;28;19925;-71
2023/09/11 11:45:48;;;;;;;;;;;;;;;30.43;22.96;95448.28;4986299;28;20128;-71
2023/09/11 11:48:14;;;;;;;;;;;;;;;30.61;23.50;95447.56;4992226;28;19929;-71
2023/09/11 11:50:43;;;;;;;;;;;;;;;30.80;21.85;95447.41;4994786;28;19921;-71
2023/09/11 11:53:13;;;;;;;;;;;;;;;30.32;22.57;95442.19;5002203;28;19921;-71
2023/09/11 11:55:38;;;;;;;;;;;;;;;30.19;22.01;95443.09;4994528;28;19968;-71
2023/09/11 11:58:08;;;;;;;;;;;;;;;30.55;21.34;95439.47;4992097;28;20040;-71
2023/09/11 12:00:34;;;;;;;;;;;;;;;29.04;23.87;95436.34;4993484;28;19932;-71
2023/09/11 12:03:02;;;;;;;;;;;;;;;29.91;22.86;95437.66;4993803;28;20088;-71
2023/09/11 12:05:27;;;;;;;;;;;;;;;30.34;22.82;95433.66;4993418;28;20555;-71
2023/09/11 12:07:53;;;;;;;;;;;;;;;29.77;23.53;95435.75;4986576;28;20007;-71
2023/09/11 12:10:18;;;;;;;;;;;;;;;30.52;23.23;95423.59;4982525;28;19922;-71
2023/09/11 12:12:43;;;;;;;;;;;;;;;30.56;22.50;95429.28;4981624;28;20054;-71
2023/09/11 12:15:09;;;;;;;;;;;;;;;29.09;23.89;95430.75;4979493;28;21096;-71
2023/09/11 12:17:35;;;;;;;;;;;;;;;27.83;26.19;95425.66;4985180;28;19949;-71
2023/09/11 12:20:13;;;;;;;;;;;;;;;29.70;24.49;95421.63;4982538;28;20375;-71
2023/09/11 12:22:38;;;;;;;;;;;;;;;30.61;24.36;95428.34;4988762;28;19952;-71
2023/09/11 12:25:04;;;;;;;;;;;;;;;31.47;21.54;95429.09;4994025;28;20033;-71
2023/09/11 12:27:29;;;;;;;;;;;;;;;31.32;21.62;95430.34;4994310;28;19963;-71
2023/09/11 12:29:57;;;;;;;;;;;;;;;31.63;21.95;95433.38;4994534;28;20189;-71
2023/09/11 12:32:22;;;;;;;;;;;;;;;30.63;22.71;95428.84;4990991;28;19935;-71
2023/09/11 12:34:48;;;;;;;;;;;;;;;30.50;23.05;95430.53;4993925;28;20438;-71
2023/09/11 12:37:13;;;;;;;;;;;;;;;31.13;23.25;95422.34;4993544;28;20036;-71
2023/09/11 12:39:38;;;;;;;;;;;;;;;31.96;21.37;95420.00;4994054;28;19961;-71
2023/09/11 12:42:04;;;;;;;;;;;;;;;32.37;20.45;95420.66;4992374;28;20030;-72